createdAt,value
2023-02-11T00:00:00.922Z,3.30
2023-02-11T00:05:04.862Z,3.55
2023-02-11T00:10:09.129Z,3.67
2023-02-11T00:15:12.291Z,3.10
2023-02-11T00:20:15.721Z,3.42
2023-02-11T00:30:21.803Z,2.83
2023-02-11T00:35:24.913Z,2.97
2023-02-11T00:40:28.420Z,2.50
2023-02-11T00:45:31.517Z,2.45
2023-02-11T00:50:35.681Z,2.72
2023-02-11T00:55:39.344Z,3.58
2023-02-11T01:00:42.987Z,2.70
2023-02-11T01:05:46.315Z,2.70
2023-02-11T01:16:00.148Z,2.17
2023-02-11T01:21:03.555Z,3.08
2023-02-11T01:26:06.900Z,1.98
2023-02-11T01:31:10.133Z,2.47
2023-02-11T01:36:13.452Z,2.38
2023-02-11T01:46:29.086Z,2.47
2023-02-11T01:56:47.158Z,2.13
2023-02-11T02:02:00.967Z,2.58
2023-02-11T02:07:11.277Z,2.40
2023-02-11T02:12:14.490Z,2.63
2023-02-11T02:17:46.481Z,2.30
2023-02-11T02:23:14.276Z,2.50
2023-02-11T02:28:35.226Z,2.53
2023-02-11T02:33:53.837Z,1.92
2023-02-11T02:39:08.532Z,2.40
2023-02-11T02:44:12.061Z,2.40
2023-02-11T02:49:16.770Z,1.92
2023-02-11T02:54:35.055Z,2.30
2023-02-11T03:00:11.419Z,1.75
2023-02-11T03:05:45.750Z,1.75
2023-02-11T03:10:52.846Z,2.00
2023-02-11T03:15:58.703Z,2.10
2023-02-11T03:21:05.682Z,1.98
2023-02-11T03:26:39.427Z,1.70
2023-02-11T03:32:10.041Z,2.03
2023-02-11T03:37:29.699Z,1.70
2023-02-11T03:42:38.410Z,1.85
2023-02-11T03:47:47.608Z,1.98
2023-02-11T03:52:51.894Z,2.33
2023-02-11T03:57:55.643Z,1.83
2023-02-11T04:02:59.349Z,1.98
2023-02-11T04:08:03.002Z,2.08
2023-02-11T04:13:06.261Z,2.20
2023-02-11T04:23:12.485Z,1.80
2023-02-11T04:28:15.683Z,2.25
2023-02-11T04:33:18.803Z,1.60
2023-02-11T04:38:21.989Z,1.67
2023-02-11T04:43:25.018Z,1.70
2023-02-11T04:48:28.302Z,1.90
2023-02-11T04:53:31.496Z,2.00
2023-02-11T04:58:35.201Z,1.88
2023-02-11T05:03:38.529Z,1.60
2023-02-11T05:13:44.516Z,1.60
2023-02-11T05:18:47.756Z,1.80
2023-02-11T05:23:51.004Z,1.75
2023-02-11T05:28:54.114Z,1.92
2023-02-11T05:33:57.320Z,1.55
2023-02-11T05:39:00.527Z,1.98
2023-02-11T05:44:03.767Z,1.83
2023-02-11T05:49:07.004Z,1.95
2023-02-11T05:54:10.162Z,1.65
2023-02-11T05:59:16.651Z,1.67
2023-02-11T06:04:19.844Z,2.17
2023-02-11T06:14:26.095Z,1.70
2023-02-11T06:19:29.659Z,1.85
2023-02-11T06:24:58.523Z,1.88
2023-02-11T06:29:56.479Z,1.63
2023-02-11T06:34:59.798Z,1.55
2023-02-11T06:40:02.907Z,1.67
2023-02-11T06:45:08.453Z,1.65
2023-02-11T06:50:14.125Z,2.00
2023-02-11T06:55:17.511Z,1.95
2023-02-11T07:05:23.685Z,2.10
2023-02-11T07:10:27.110Z,1.50
2023-02-11T07:15:30.313Z,1.55
2023-02-11T07:20:33.449Z,2.10
2023-02-11T07:25:37.067Z,1.60
2023-02-11T07:30:40.301Z,1.95
2023-02-11T07:40:46.340Z,1.85
2023-02-11T07:45:49.771Z,1.55
2023-02-11T07:50:53.077Z,2.08
2023-02-11T07:55:56.202Z,1.48
2023-02-11T08:01:04.787Z,1.65
2023-02-11T08:06:14.033Z,2.10
2023-02-11T08:11:28.676Z,2.10
2023-02-11T08:16:35.268Z,1.95
2023-02-11T08:21:39.113Z,2.20
2023-02-11T08:26:42.828Z,1.58
2023-02-11T08:31:47.764Z,2.42
2023-02-11T08:36:51.349Z,2.08
2023-02-11T08:41:55.532Z,2.00
2023-02-11T08:46:58.642Z,2.50
2023-02-11T08:52:02.177Z,1.80
2023-02-11T08:57:08.174Z,2.17
2023-02-11T09:02:15.277Z,2.00
2023-02-11T09:07:18.474Z,2.15
2023-02-11T09:12:21.642Z,2.15
2023-02-11T09:17:24.871Z,1.85
2023-02-11T09:22:28.055Z,2.20
2023-02-11T09:27:31.214Z,1.92
2023-02-11T09:32:35.020Z,2.20
2023-02-11T09:37:38.296Z,1.75
2023-02-11T09:42:46.742Z,1.90
2023-02-11T09:47:58.463Z,1.80
2023-02-11T09:53:23.636Z,2.25
2023-02-11T09:58:30.118Z,2.38
2023-02-11T10:03:55.345Z,2.22
2023-02-11T10:09:29.240Z,2.20
2023-02-11T10:14:53.354Z,2.72
2023-02-11T10:20:29.691Z,3.00
2023-02-11T10:25:39.469Z,3.08
2023-02-11T10:30:53.418Z,2.47
2023-02-11T10:35:56.910Z,2.53
2023-02-11T10:41:00.167Z,2.83
2023-02-11T10:46:05.893Z,3.10
2023-02-11T10:51:23.571Z,2.70
2023-02-11T10:56:28.317Z,2.33
2023-02-11T11:01:51.803Z,2.25
2023-02-11T11:06:55.698Z,2.83
2023-02-11T11:11:58.957Z,2.88
2023-02-11T11:17:02.220Z,3.60
2023-02-11T11:22:05.909Z,2.15
2023-02-11T11:27:19.228Z,2.72
2023-02-11T11:32:30.079Z,2.70
2023-02-11T11:37:37.074Z,2.40
2023-02-11T11:42:40.516Z,2.72
2023-02-11T11:53:04.683Z,2.80
2023-02-11T11:58:18.962Z,2.33
2023-02-11T12:03:37.609Z,2.70
2023-02-11T12:09:04.812Z,2.60
2023-02-11T12:14:32.227Z,2.70
2023-02-11T12:20:10.545Z,2.22
2023-02-11T12:25:39.314Z,3.05
2023-02-11T12:30:53.173Z,2.50
2023-02-11T12:36:26.180Z,2.17
2023-02-11T12:41:50.684Z,2.42
2023-02-11T12:47:09.666Z,1.88
2023-02-11T12:52:35.684Z,2.78
2023-02-11T12:57:43.754Z,1.92
2023-02-11T13:03:08.385Z,2.42
2023-02-11T13:08:35.612Z,2.05
2023-02-11T13:13:57.736Z,2.13
2023-02-11T13:19:13.121Z,2.50
2023-02-11T13:24:40.008Z,2.42
2023-02-11T13:30:18.491Z,2.85
2023-02-11T13:35:35.250Z,2.38
2023-02-11T13:40:39.906Z,2.17
2023-02-11T13:45:46.882Z,2.50
2023-02-11T13:50:54.559Z,2.40
2023-02-11T13:56:23.607Z,2.67
2023-02-11T14:02:20.415Z,2.42
2023-02-11T14:07:32.089Z,2.92
2023-02-11T14:12:35.620Z,3.25
2023-02-11T14:17:38.751Z,2.78
2023-02-11T14:22:49.762Z,2.90
2023-02-11T14:28:00.353Z,3.55
2023-02-11T14:33:24.467Z,4.28
2023-02-11T14:38:40.031Z,3.40
2023-02-11T14:43:51.374Z,3.75
2023-02-11T14:48:58.709Z,2.70
2023-02-11T14:54:17.619Z,3.17
2023-02-11T14:59:23.016Z,3.58
2023-02-11T15:04:34.082Z,3.15
2023-02-11T15:09:48.171Z,3.42
2023-02-11T15:14:54.886Z,3.15
2023-02-11T15:20:01.948Z,3.15
2023-02-11T15:25:12.419Z,2.92
2023-02-11T15:30:24.356Z,3.38
2023-02-11T15:35:37.781Z,3.53
2023-02-11T15:40:40.954Z,3.50
2023-02-11T15:45:59.936Z,3.88
2023-02-11T15:51:12.736Z,7.18
2023-02-11T15:56:26.172Z,4.18
2023-02-11T16:01:35.342Z,3.88
2023-02-11T16:06:42.836Z,3.58
2023-02-11T16:11:48.666Z,4.00
2023-02-11T16:16:55.473Z,4.25
2023-02-11T16:22:01.365Z,3.83
2023-02-11T16:27:16.878Z,3.22
2023-02-11T16:32:25.831Z,4.00
2023-02-11T16:37:29.003Z,3.30
2023-02-11T16:42:32.087Z,4.05
2023-02-11T16:47:35.971Z,4.70
2023-02-11T16:52:39.267Z,3.47
2023-02-11T16:57:42.375Z,3.30
2023-02-11T17:02:45.980Z,3.13
2023-02-11T17:07:50.130Z,3.47
2023-02-11T17:12:53.332Z,3.60
2023-02-11T17:28:04.063Z,3.45
2023-02-11T17:33:07.547Z,3.15
2023-02-11T17:38:11.299Z,3.13
2023-02-11T17:43:14.385Z,3.45
2023-02-11T17:48:17.561Z,3.13
2023-02-11T17:53:20.826Z,3.50
2023-02-11T17:58:24.141Z,4.05
2023-02-11T18:03:27.269Z,3.75
2023-02-11T18:08:30.944Z,3.28
2023-02-11T18:13:34.155Z,3.30
2023-02-11T18:18:37.371Z,3.97
2023-02-11T18:23:42.285Z,3.33
2023-02-11T18:33:50.215Z,3.67
2023-02-11T18:38:53.691Z,4.65
2023-02-11T18:43:58.458Z,4.55
2023-02-11T18:49:01.617Z,5.38
2023-02-11T18:59:07.850Z,5.72
2023-02-11T19:09:17.525Z,5.57
2023-02-11T19:14:25.961Z,6.60
2023-02-11T19:19:31.467Z,6.50
2023-02-11T19:24:35.709Z,5.68
2023-02-11T19:29:39.137Z,6.53
2023-02-11T19:34:42.554Z,7.45
2023-02-11T19:44:48.549Z,5.97
2023-02-11T19:49:51.632Z,6.18
2023-02-11T19:54:54.924Z,6.15
2023-02-11T19:59:58.418Z,5.88
2023-02-11T20:05:01.634Z,5.90
2023-02-11T20:10:06.715Z,6.18
2023-02-11T20:15:10.340Z,6.47
2023-02-11T20:20:13.545Z,6.65
2023-02-11T20:25:16.724Z,6.13
2023-02-11T20:30:20.005Z,6.07
2023-02-11T20:40:26.310Z,6.47
2023-02-11T20:45:29.535Z,6.53
2023-02-11T20:55:38.506Z,6.50
2023-02-11T21:00:41.716Z,6.05
2023-02-11T21:05:44.889Z,6.40
2023-02-11T21:10:48.768Z,6.53
2023-02-11T21:15:56.684Z,5.60
2023-02-11T21:21:00.680Z,4.47
2023-02-11T21:26:04.187Z,4.90
2023-02-11T21:36:10.689Z,4.30
2023-02-11T21:41:13.911Z,4.68
2023-02-11T21:46:18.975Z,4.32
2023-02-11T21:51:24.601Z,4.00
2023-02-11T21:56:29.255Z,3.88
2023-02-11T22:01:34.396Z,3.88
2023-02-11T22:06:37.622Z,4.35
2023-02-11T22:11:40.794Z,3.75
2023-02-11T22:16:47.638Z,3.80
2023-02-11T22:21:50.716Z,3.72
2023-02-11T22:26:53.892Z,3.85
2023-02-11T22:31:57.242Z,3.85
2023-02-11T22:37:02.328Z,4.20
2023-02-11T22:42:06.089Z,4.32
2023-02-11T22:47:09.215Z,3.08
2023-02-11T22:52:12.358Z,3.28
2023-02-11T22:57:15.509Z,3.05
2023-02-11T23:07:21.975Z,3.05
2023-02-11T23:12:25.179Z,3.17
2023-02-11T23:17:28.225Z,2.47
2023-02-11T23:22:31.283Z,3.03
2023-02-11T23:27:34.476Z,3.72
2023-02-11T23:32:40.432Z,2.60
2023-02-11T23:37:43.548Z,2.80
2023-02-11T23:42:47.253Z,2.88
2023-02-11T23:47:50.350Z,3.50
2023-02-11T23:52:53.493Z,2.83
2023-02-11T23:57:56.716Z,3.00
